createdAt,value
2022-09-17T00:01:05.581Z,0.60
2022-09-17T00:03:34.373Z,0.80
2022-09-17T00:06:03.606Z,0.60
2022-09-17T00:08:30.579Z,0.50
2022-09-17T00:10:57.155Z,0.55
2022-09-17T00:13:23.873Z,0.65
2022-09-17T00:15:52.452Z,0.60
2022-09-17T00:18:19.252Z,0.60
2022-09-17T00:20:47.318Z,0.60
2022-09-17T00:23:15.219Z,0.70
2022-09-17T00:25:44.006Z,0.82
2022-09-17T00:28:11.924Z,0.65
2022-09-17T00:30:43.153Z,0.90
2022-09-17T00:33:13.014Z,0.73
2022-09-17T00:35:39.745Z,0.90
2022-09-17T00:38:09.483Z,0.90
2022-09-17T00:40:36.098Z,1.13
2022-09-17T00:43:03.124Z,1.00
2022-09-17T00:45:32.091Z,1.10
2022-09-17T00:48:05.303Z,1.00
2022-09-17T00:50:36.650Z,0.65
2022-09-17T00:53:13.880Z,0.80
2022-09-17T00:55:45.247Z,1.10
2022-09-17T00:58:15.396Z,0.85
2022-09-17T01:00:43.362Z,0.90
2022-09-17T01:03:09.847Z,0.80
2022-09-17T01:05:45.852Z,0.90
2022-09-17T01:08:25.862Z,1.00
2022-09-17T01:11:01.330Z,0.70
2022-09-17T01:14:03.163Z,0.80
2022-09-17T01:16:35.907Z,0.60
2022-09-17T01:19:51.328Z,0.80
2022-09-17T01:22:47.125Z,0.80
2022-09-17T01:25:25.110Z,0.80
2022-09-17T01:28:13.724Z,1.30
2022-09-17T01:30:55.768Z,1.40
2022-09-17T01:33:44.262Z,1.83
2022-09-17T01:36:19.657Z,1.90
2022-09-17T01:39:03.506Z,2.10
2022-09-17T01:41:41.944Z,1.95
2022-09-17T01:44:22.413Z,1.90
2022-09-17T01:47:01.588Z,2.33
2022-09-17T01:49:31.737Z,2.15
2022-09-17T01:52:00.685Z,2.67
2022-09-17T01:54:37.130Z,2.83
2022-09-17T01:57:16.392Z,2.50
2022-09-17T01:59:49.027Z,2.75
2022-09-17T02:02:30.864Z,2.97
2022-09-17T02:05:05.364Z,3.20
2022-09-17T02:07:37.307Z,2.78
2022-09-17T02:10:18.364Z,2.97
2022-09-17T02:12:59.159Z,3.20
2022-09-17T02:15:35.022Z,3.20
2022-09-17T02:18:17.970Z,3.40
2022-09-17T02:20:54.857Z,2.83
2022-09-17T02:23:29.698Z,2.95
2022-09-17T02:26:04.462Z,3.47
2022-09-17T02:28:39.214Z,3.40
2022-09-17T02:31:06.058Z,3.28
2022-09-17T02:33:35.167Z,3.88
2022-09-17T02:36:02.527Z,3.65
2022-09-17T02:38:30.938Z,3.58
2022-09-17T02:41:26.319Z,3.10
2022-09-17T02:44:24.862Z,2.95
2022-09-17T02:47:09.941Z,3.10
2022-09-17T02:50:14.861Z,3.17
2022-09-17T02:52:59.130Z,3.50
2022-09-17T02:55:34.853Z,3.35
2022-09-17T02:58:25.743Z,3.28
2022-09-17T03:00:52.949Z,3.30
2022-09-17T03:03:21.909Z,3.15
2022-09-17T03:05:48.657Z,3.63
2022-09-17T03:08:20.153Z,2.90
2022-09-17T03:10:49.243Z,2.92
2022-09-17T03:13:16.298Z,3.63
2022-09-17T03:15:43.289Z,3.00
2022-09-17T03:18:09.931Z,3.05
2022-09-17T03:20:36.744Z,3.63
2022-09-17T03:23:03.365Z,4.05
2022-09-17T03:25:29.892Z,3.35
2022-09-17T03:27:56.365Z,3.40
2022-09-17T03:30:22.840Z,3.30
2022-09-17T03:32:49.340Z,3.15
2022-09-17T03:35:15.842Z,3.22
2022-09-17T03:37:43.114Z,3.22
2022-09-17T03:40:10.389Z,3.28
2022-09-17T03:42:36.883Z,3.20
2022-09-17T03:45:03.496Z,3.30
2022-09-17T03:47:30.739Z,3.10
2022-09-17T03:49:57.787Z,3.58
2022-09-17T03:52:24.286Z,3.67
2022-09-17T03:54:50.800Z,3.38
2022-09-17T03:57:17.254Z,3.10
2022-09-17T03:59:43.791Z,3.13
2022-09-17T04:02:10.303Z,3.88
2022-09-17T04:04:36.913Z,4.22
2022-09-17T04:07:05.722Z,4.65
2022-09-17T04:09:33.448Z,4.15
2022-09-17T04:12:02.034Z,3.95
2022-09-17T04:14:28.553Z,3.67
2022-09-17T04:16:55.258Z,3.63
2022-09-17T04:19:21.735Z,3.95
2022-09-17T04:21:48.226Z,4.25
2022-09-17T04:24:14.674Z,4.68
2022-09-17T04:26:41.181Z,3.58
2022-09-17T04:29:07.874Z,4.45
2022-09-17T04:31:34.456Z,3.90
2022-09-17T04:34:01.073Z,4.15
2022-09-17T04:36:27.604Z,3.90
2022-09-17T04:38:54.209Z,4.38
2022-09-17T04:41:20.751Z,4.03
2022-09-17T04:43:50.294Z,3.67
2022-09-17T04:46:16.873Z,3.30
2022-09-17T04:48:43.645Z,3.75
2022-09-17T04:51:10.267Z,3.95
2022-09-17T04:53:38.501Z,3.50
2022-09-17T04:56:05.333Z,3.30
2022-09-17T04:58:33.004Z,2.95
2022-09-17T05:00:59.638Z,3.42
2022-09-17T05:03:26.522Z,3.53
2022-09-17T05:05:53.038Z,4.13
2022-09-17T05:08:19.503Z,3.67
2022-09-17T05:10:46.015Z,3.45
2022-09-17T05:13:12.486Z,4.00
2022-09-17T05:15:39.045Z,3.42
2022-09-17T05:18:05.613Z,3.85
2022-09-17T05:20:32.067Z,3.60
2022-09-17T05:22:58.553Z,3.40
2022-09-17T05:25:25.102Z,3.63
2022-09-17T05:27:53.424Z,3.60
2022-09-17T05:30:20.518Z,3.90
2022-09-17T05:32:47.300Z,3.50
2022-09-17T05:35:14.194Z,3.80
2022-09-17T05:37:40.761Z,3.88
2022-09-17T05:40:08.881Z,3.50
2022-09-17T05:42:35.565Z,3.00
2022-09-17T05:45:02.139Z,3.85
2022-09-17T05:47:28.710Z,3.00
2022-09-17T05:49:55.168Z,3.25
2022-09-17T05:52:21.624Z,3.70
2022-09-17T05:54:48.654Z,3.60
2022-09-17T05:57:15.987Z,3.58
2022-09-17T05:59:42.526Z,4.38
2022-09-17T06:02:15.314Z,3.47
2022-09-17T06:04:41.787Z,3.58
2022-09-17T06:07:09.279Z,3.42
2022-09-17T06:09:40.557Z,3.80
2022-09-17T06:12:07.385Z,3.88
2022-09-17T06:14:33.837Z,3.30
2022-09-17T06:17:00.431Z,3.80
2022-09-17T06:19:27.672Z,4.43
2022-09-17T06:21:54.256Z,3.13
2022-09-17T06:24:20.697Z,3.83
2022-09-17T06:26:47.200Z,4.40
2022-09-17T06:29:15.192Z,4.07
2022-09-17T06:31:44.812Z,3.80
2022-09-17T06:34:11.797Z,3.22
2022-09-17T06:36:38.360Z,3.95
2022-09-17T06:39:04.869Z,3.50
2022-09-17T06:41:31.507Z,3.50
2022-09-17T06:43:58.687Z,3.35
2022-09-17T06:46:25.528Z,3.70
2022-09-17T06:48:52.175Z,3.83
2022-09-17T06:51:18.673Z,3.55
2022-09-17T06:53:45.163Z,3.53
2022-09-17T06:56:11.625Z,3.60
2022-09-17T06:58:38.509Z,3.38
2022-09-17T07:01:05.893Z,3.90
2022-09-17T07:03:33.395Z,3.17
2022-09-17T07:06:00.336Z,4.00
2022-09-17T07:08:26.980Z,3.47
2022-09-17T07:10:57.384Z,3.50
2022-09-17T07:13:24.814Z,3.53
2022-09-17T07:15:59.374Z,3.53
2022-09-17T07:18:26.953Z,3.45
2022-09-17T07:20:57.699Z,4.22
2022-09-17T07:23:26.953Z,3.90
2022-09-17T07:26:01.775Z,3.45
2022-09-17T07:28:29.125Z,3.47
2022-09-17T07:30:56.522Z,4.25
2022-09-17T07:33:25.653Z,4.10
2022-09-17T07:35:56.732Z,4.28
2022-09-17T07:38:24.407Z,3.75
2022-09-17T07:41:09.667Z,3.55
2022-09-17T07:43:36.349Z,3.75
2022-09-17T07:46:05.656Z,3.42
2022-09-17T07:48:32.440Z,3.50
2022-09-17T07:50:59.047Z,4.18
2022-09-17T07:53:29.443Z,3.55
2022-09-17T07:55:58.532Z,4.05
2022-09-17T07:58:30.641Z,3.90
2022-09-17T08:01:06.956Z,3.28
2022-09-17T08:03:33.715Z,3.72
2022-09-17T08:06:05.495Z,3.10
2022-09-17T08:08:33.730Z,4.18
2022-09-17T08:11:10.746Z,3.45
2022-09-17T08:13:37.915Z,3.45
2022-09-17T08:16:07.225Z,3.55
2022-09-17T08:18:34.345Z,3.65
2022-09-17T08:21:03.040Z,3.92
2022-09-17T08:23:30.925Z,3.92
2022-09-17T08:25:59.868Z,3.45
2022-09-17T08:28:31.399Z,3.45
2022-09-17T08:31:03.404Z,3.47
2022-09-17T08:33:34.800Z,3.53
2022-09-17T08:36:01.562Z,3.53
2022-09-17T08:38:29.331Z,3.67
2022-09-17T08:41:11.336Z,3.95
2022-09-17T08:44:06.424Z,3.55
2022-09-17T08:46:46.993Z,3.13
2022-09-17T08:49:18.376Z,3.22
2022-09-17T08:51:54.369Z,3.67
2022-09-17T08:54:45.012Z,3.42
2022-09-17T08:57:11.526Z,3.35
2022-09-17T08:59:49.508Z,3.30
2022-09-17T09:02:42.116Z,3.58
2022-09-17T09:05:16.930Z,2.88
2022-09-17T09:07:50.040Z,3.47
2022-09-17T09:10:25.388Z,3.70
2022-09-17T09:12:53.457Z,3.55
2022-09-17T09:16:03.405Z,2.47
2022-09-17T09:18:35.607Z,3.13
2022-09-17T09:21:13.956Z,2.92
2022-09-17T09:23:56.818Z,2.70
2022-09-17T09:26:32.412Z,2.78
2022-09-17T09:29:10.019Z,3.03
2022-09-17T09:32:16.247Z,3.13
2022-09-17T09:34:44.286Z,3.50
2022-09-17T09:37:21.776Z,2.75
2022-09-17T09:39:51.268Z,2.70
2022-09-17T09:42:30.892Z,2.97
2022-09-17T09:45:05.536Z,2.85
2022-09-17T09:47:50.206Z,2.92
2022-09-17T09:51:05.163Z,3.17
2022-09-17T09:56:34.887Z,3.40
2022-09-17T09:59:01.410Z,3.03
2022-09-17T10:01:30.294Z,2.60
2022-09-17T10:03:58.839Z,3.05
2022-09-17T10:06:29.392Z,2.78
2022-09-17T10:08:55.888Z,3.13
2022-09-17T10:11:27.716Z,3.35
2022-09-17T10:14:15.246Z,2.65
2022-09-17T10:16:41.801Z,2.50
2022-09-17T10:19:08.228Z,3.17
2022-09-17T10:21:40.318Z,2.83
2022-09-17T10:27:12.264Z,2.83
2022-09-17T10:29:43.225Z,2.72
2022-09-17T10:32:16.085Z,2.90
2022-09-17T10:34:57.610Z,3.03
2022-09-17T10:37:43.849Z,3.08
2022-09-17T10:40:36.467Z,2.70
2022-09-17T10:43:16.692Z,2.40
2022-09-17T10:45:46.364Z,2.60
2022-09-17T10:48:20.441Z,2.72
2022-09-17T10:50:51.979Z,3.00
2022-09-17T10:53:20.751Z,3.35
2022-09-17T10:55:56.067Z,3.28
2022-09-17T10:58:48.776Z,2.60
2022-09-17T11:01:24.378Z,2.38
2022-09-17T11:03:57.002Z,2.70
2022-09-17T11:07:02.088Z,2.72
2022-09-17T11:09:37.368Z,2.58
2022-09-17T11:12:27.553Z,2.72
2022-09-17T11:15:27.311Z,2.90
2022-09-17T11:18:08.962Z,2.10
2022-09-17T11:20:55.948Z,2.25
2022-09-17T11:23:42.644Z,2.47
2022-09-17T11:26:48.942Z,1.85
2022-09-17T11:29:35.416Z,2.10
2022-09-17T11:32:36.843Z,2.30
2022-09-17T11:35:10.231Z,1.70
2022-09-17T11:38:08.857Z,2.13
2022-09-17T11:40:41.425Z,1.98
2022-09-17T11:43:23.025Z,3.28
2022-09-17T11:46:11.021Z,2.28
2022-09-17T11:48:53.021Z,2.08
2022-09-17T11:51:39.741Z,2.30
2022-09-17T11:54:38.810Z,2.30
2022-09-17T11:57:17.217Z,1.40
2022-09-17T11:59:47.009Z,2.53
2022-09-17T12:02:31.047Z,2.25
2022-09-17T12:05:26.223Z,2.25
2022-09-17T12:08:10.280Z,1.90
2022-09-17T12:10:53.531Z,2.30
2022-09-17T12:13:41.662Z,1.60
2022-09-17T12:16:22.857Z,1.90
2022-09-17T12:19:30.796Z,1.83
2022-09-17T12:22:02.089Z,1.90
2022-09-17T12:24:30.910Z,2.47
2022-09-17T12:27:06.105Z,1.45
2022-09-17T12:30:09.757Z,1.70
2022-09-17T12:33:11.883Z,1.75
2022-09-17T12:36:04.023Z,1.50
2022-09-17T12:38:47.759Z,1.65
2022-09-17T12:41:21.087Z,2.00
2022-09-17T12:44:05.495Z,1.38
2022-09-17T12:46:56.252Z,1.60
2022-09-17T12:49:41.659Z,1.45
2022-09-17T12:52:33.622Z,1.90
2022-09-17T12:55:20.098Z,2.03
2022-09-17T12:58:29.034Z,1.75
2022-09-17T13:01:07.080Z,1.60
2022-09-17T13:03:42.528Z,1.92
2022-09-17T13:06:26.194Z,2.30
2022-09-17T13:09:10.850Z,1.75
2022-09-17T13:12:01.713Z,1.85
2022-09-17T13:14:48.468Z,1.75
2022-09-17T13:17:32.984Z,2.20
2022-09-17T13:19:59.643Z,1.55
2022-09-17T13:22:42.933Z,2.08
2022-09-17T13:25:12.476Z,1.63
2022-09-17T13:27:39.561Z,2.17
2022-09-17T13:30:08.713Z,1.80
2022-09-17T13:32:35.372Z,1.67
2022-09-17T13:35:24.913Z,1.70
2022-09-17T13:37:59.400Z,1.65
2022-09-17T13:40:35.168Z,1.88
2022-09-17T13:43:06.150Z,1.85
2022-09-17T13:45:33.866Z,1.70
2022-09-17T13:48:13.095Z,1.70
2022-09-17T13:50:41.979Z,1.90
2022-09-17T13:53:14.370Z,2.00
2022-09-17T13:55:52.275Z,1.50
2022-09-17T13:58:18.788Z,1.60
2022-09-17T14:01:27.114Z,2.05
2022-09-17T14:03:54.521Z,1.80
2022-09-17T14:06:24.681Z,1.20
2022-09-17T14:08:55.460Z,2.10
2022-09-17T14:11:28.627Z,1.70
2022-09-17T14:14:04.247Z,1.52
2022-09-17T14:16:35.454Z,1.45
2022-09-17T14:19:22.046Z,1.75
2022-09-17T14:21:57.005Z,1.75
2022-09-17T14:24:32.903Z,1.75
2022-09-17T14:27:14.326Z,1.55
2022-09-17T14:29:47.020Z,1.60
2022-09-17T14:32:20.834Z,1.55
2022-09-17T14:34:49.167Z,1.52
2022-09-17T14:37:19.837Z,2.08
2022-09-17T14:39:47.599Z,1.70
2022-09-17T14:42:20.919Z,1.45
2022-09-17T14:44:59.346Z,1.52
2022-09-17T14:47:27.002Z,1.90
2022-09-17T14:49:54.298Z,1.48
2022-09-17T14:52:25.378Z,1.50
2022-09-17T14:55:11.779Z,1.70
2022-09-17T14:57:38.541Z,1.52
2022-09-17T15:00:10.881Z,1.80
2022-09-17T15:02:41.556Z,2.00
2022-09-17T15:05:25.980Z,1.60
2022-09-17T15:08:05.674Z,2.42
2022-09-17T15:10:32.716Z,1.92
2022-09-17T15:13:07.038Z,1.95
2022-09-17T15:15:35.147Z,1.73
2022-09-17T15:18:01.632Z,1.50
2022-09-17T15:20:31.367Z,1.23
2022-09-17T15:23:13.210Z,1.52
2022-09-17T15:25:42.175Z,1.75
2022-09-17T15:28:34.109Z,3.00
2022-09-17T15:31:00.983Z,1.88
2022-09-17T15:33:28.855Z,1.70
2022-09-17T15:36:09.833Z,1.60
2022-09-17T15:38:39.075Z,2.60
2022-09-17T15:41:34.549Z,1.55
2022-09-17T15:44:33.001Z,1.60
2022-09-17T15:47:39.595Z,1.77
2022-09-17T15:50:26.823Z,2.03
2022-09-17T15:53:08.552Z,1.63
2022-09-17T15:55:41.093Z,1.95
2022-09-17T15:58:34.450Z,1.70
2022-09-17T16:01:16.453Z,1.70
2022-09-17T16:06:18.282Z,2.03
2022-09-17T16:08:55.859Z,2.72
2022-09-17T16:11:24.999Z,1.88
2022-09-17T16:13:53.503Z,1.50
2022-09-17T16:16:26.646Z,1.38
2022-09-17T16:18:53.178Z,1.85
2022-09-17T16:21:20.232Z,1.38
2022-09-17T16:24:02.009Z,1.48
2022-09-17T16:26:31.517Z,1.15
2022-09-17T16:29:07.132Z,1.70
2022-09-17T16:31:34.271Z,1.70
2022-09-17T16:34:00.992Z,1.17
2022-09-17T16:36:31.043Z,1.58
2022-09-17T16:38:58.510Z,1.20
2022-09-17T16:41:25.079Z,1.52
2022-09-17T16:43:51.514Z,1.70
2022-09-17T16:46:18.028Z,1.50
2022-09-17T16:48:46.354Z,1.70
2022-09-17T16:51:14.039Z,1.40
2022-09-17T16:53:40.913Z,2.22
2022-09-17T16:56:08.940Z,1.50
2022-09-17T16:58:35.850Z,1.83
2022-09-17T17:01:11.941Z,1.38
2022-09-17T17:03:38.944Z,1.40
2022-09-17T17:06:05.830Z,1.80
2022-09-17T17:08:33.142Z,1.70
2022-09-17T17:10:59.905Z,2.28
2022-09-17T17:13:27.814Z,1.95
2022-09-17T17:15:54.859Z,1.80
2022-09-17T17:18:21.867Z,1.83
2022-09-17T17:20:48.933Z,2.10
2022-09-17T17:23:19.649Z,2.03
2022-09-17T17:25:46.757Z,2.00
2022-09-17T17:28:14.996Z,2.08
2022-09-17T17:30:41.425Z,1.52
2022-09-17T17:33:07.966Z,2.45
2022-09-17T17:35:38.300Z,2.72
2022-09-17T17:38:04.961Z,2.08
2022-09-17T17:40:31.568Z,2.28
2022-09-17T17:42:58.146Z,2.22
2022-09-17T17:45:24.669Z,3.55
2022-09-17T17:47:52.205Z,2.03
2022-09-17T17:50:18.841Z,1.98
2022-09-17T17:52:48.071Z,1.83
2022-09-17T17:55:18.308Z,2.08
2022-09-17T17:57:44.814Z,1.58
2022-09-17T18:00:14.600Z,1.90
2022-09-17T18:02:41.146Z,2.10
2022-09-17T18:05:08.014Z,1.80
2022-09-17T18:07:34.571Z,2.55
2022-09-17T18:10:01.128Z,3.40
2022-09-17T18:12:27.594Z,2.38
2022-09-17T18:14:54.289Z,1.83
2022-09-17T18:17:20.858Z,2.63
2022-09-17T18:19:47.400Z,2.00
2022-09-17T18:22:14.155Z,2.05
2022-09-17T18:24:40.710Z,2.08
2022-09-17T18:27:07.205Z,1.85
2022-09-17T18:29:33.722Z,1.90
2022-09-17T18:32:00.233Z,2.03
2022-09-17T18:34:26.845Z,2.05
2022-09-17T18:36:53.331Z,2.17
2022-09-17T18:39:57.115Z,2.20
2022-09-17T18:42:08.011Z,2.10
2022-09-17T18:44:34.685Z,1.52
2022-09-17T18:47:01.511Z,1.83
2022-09-17T18:49:28.102Z,1.77
2022-09-17T18:51:54.549Z,2.08
2022-09-17T18:54:21.046Z,1.85
2022-09-17T18:56:47.501Z,1.75
2022-09-17T18:59:14.071Z,2.22
2022-09-17T19:01:40.652Z,1.90
2022-09-17T19:04:07.753Z,1.73
2022-09-17T19:06:34.887Z,2.53
2022-09-17T19:09:02.493Z,2.40
2022-09-17T19:11:29.114Z,2.28
2022-09-17T19:13:56.166Z,1.85
2022-09-17T19:16:22.843Z,2.13
2022-09-17T19:18:49.538Z,2.05
2022-09-17T19:21:21.524Z,2.13
2022-09-17T19:26:20.788Z,2.00
2022-09-17T19:28:47.440Z,2.28
2022-09-17T19:31:16.778Z,2.15
2022-09-17T19:33:43.835Z,2.50
2022-09-17T19:36:12.937Z,2.58
2022-09-17T19:38:39.586Z,2.28
2022-09-17T19:41:09.662Z,2.70
2022-09-17T19:43:39.652Z,2.58
2022-09-17T19:46:10.224Z,2.53
2022-09-17T19:48:36.789Z,2.28
2022-09-17T19:51:06.333Z,2.30
2022-09-17T19:53:32.881Z,2.53
2022-09-17T19:55:59.362Z,2.00
2022-09-17T19:58:25.906Z,2.20
2022-09-17T20:00:59.069Z,2.30
2022-09-17T20:03:26.037Z,1.90
2022-09-17T20:06:03.169Z,2.60
2022-09-17T20:08:29.979Z,2.30
2022-09-17T20:10:56.693Z,1.90
2022-09-17T20:13:25.417Z,2.40
2022-09-17T20:15:51.946Z,2.30
2022-09-17T20:18:22.672Z,2.20
2022-09-17T20:20:50.045Z,2.53
2022-09-17T20:23:16.628Z,2.35
2022-09-17T20:25:45.729Z,2.20
2022-09-17T20:28:12.239Z,2.83
2022-09-17T20:30:38.685Z,2.42
2022-09-17T20:33:05.142Z,2.35
2022-09-17T20:35:31.807Z,3.13
2022-09-17T20:40:44.906Z,2.75
2022-09-17T20:43:11.387Z,3.13
2022-09-17T20:45:37.861Z,2.75
2022-09-17T20:48:04.387Z,2.78
2022-09-17T20:50:30.881Z,2.72
2022-09-17T20:52:57.538Z,2.90
2022-09-17T20:55:24.049Z,3.08
2022-09-17T20:57:53.560Z,3.08
2022-09-17T21:00:21.276Z,3.03
2022-09-17T21:02:54.113Z,2.95
2022-09-17T21:05:20.584Z,2.95
2022-09-17T21:07:47.030Z,3.15
2022-09-17T21:10:13.684Z,2.40
2022-09-17T21:12:40.184Z,3.15
2022-09-17T21:15:07.069Z,3.58
2022-09-17T21:17:34.551Z,2.60
2022-09-17T21:20:01.263Z,3.58
2022-09-17T21:22:31.196Z,3.85
2022-09-17T21:24:59.429Z,2.88
2022-09-17T21:27:25.870Z,3.42
2022-09-17T21:29:52.405Z,2.80
2022-09-17T21:32:18.840Z,2.72
2022-09-17T21:34:45.298Z,2.63
2022-09-17T21:37:11.755Z,3.17
2022-09-17T21:39:38.934Z,2.72
2022-09-17T21:42:05.498Z,2.90
2022-09-17T21:44:31.930Z,2.65
2022-09-17T21:46:58.548Z,3.58
2022-09-17T21:49:25.285Z,3.25
2022-09-17T21:51:51.925Z,2.67
2022-09-17T21:54:19.020Z,2.45
2022-09-17T21:56:46.824Z,2.58
2022-09-17T21:59:14.739Z,2.90
2022-09-17T22:01:46.307Z,2.35
2022-09-17T22:04:17.254Z,2.80
2022-09-17T22:06:44.788Z,3.53
2022-09-17T22:09:24.340Z,2.58
2022-09-17T22:11:52.262Z,2.45
2022-09-17T22:14:20.785Z,1.95
2022-09-17T22:16:53.129Z,2.40
2022-09-17T22:19:21.494Z,2.17
2022-09-17T22:21:53.735Z,2.47
2022-09-17T22:24:21.553Z,2.70
2022-09-17T22:26:55.947Z,2.88
2022-09-17T22:29:24.377Z,2.67
2022-09-17T22:31:51.026Z,2.67
2022-09-17T22:34:20.756Z,2.78
2022-09-17T22:36:47.446Z,3.30
2022-09-17T22:39:14.004Z,2.20
2022-09-17T22:41:45.168Z,2.08
2022-09-17T22:44:14.249Z,2.27
2022-09-17T22:46:46.389Z,2.15
2022-09-17T22:49:13.568Z,2.42
2022-09-17T22:51:41.258Z,2.90
2022-09-17T22:54:11.312Z,2.40
2022-09-17T22:56:37.852Z,2.55
2022-09-17T22:59:04.808Z,2.42
2022-09-17T23:01:33.952Z,2.30
2022-09-17T23:04:01.304Z,2.90
2022-09-17T23:06:31.553Z,2.50
2022-09-17T23:08:59.305Z,2.22
2022-09-17T23:11:31.604Z,2.35
2022-09-17T23:14:02.201Z,2.63
2022-09-17T23:16:33.673Z,2.60
2022-09-17T23:19:00.205Z,2.67
2022-09-17T23:21:26.755Z,2.85
2022-09-17T23:23:53.252Z,2.65
2022-09-17T23:26:22.908Z,2.85
2022-09-17T23:28:50.631Z,2.58
2022-09-17T23:31:18.493Z,2.30
2022-09-17T23:33:46.025Z,2.53
2022-09-17T23:36:15.474Z,2.10
2022-09-17T23:38:43.390Z,2.28
2022-09-17T23:41:21.711Z,2.40
2022-09-17T23:44:12.315Z,2.58
2022-09-17T23:46:41.746Z,2.50
2022-09-17T23:49:10.516Z,2.78
2022-09-17T23:51:37.092Z,2.03
2022-09-17T23:54:06.868Z,2.33
2022-09-17T23:56:34.123Z,2.17
2022-09-17T23:59:01.656Z,2.15
